Terminal Aerodrome Forecast
Issued by NWS

Home | Current Version | Previous Version | Text Only | Print | Product List | Glossary On
Versions: 1 2 3 4 5 6 7 8 9 10 11 12 13 14 15 16
000
FTAK31 PAJN 241131
TAFAWG
TAF
PAWG 241131Z 2412/2512 16004KT P6SM VCSH FEW025 BKN035 OVC050
      TEMPO 2412/2416 -SHRA SCT010 BKN025 OVC035
     FM241800 12010KT P6SM -SHRA SCT012 SCT025 OVC040
     FM242100 24006KT P6SM VCSH SCT025 BKN050
     FM250800 VRB03KT 4SM BR SCT007 BKN035 PROB30 2508/2512 2SM -DZ
      BR OVC007
      AMD LTD TO CLD VIS AND WIND 2412/2415=

USA.gov is the U.S. government's official web portal to all federal, state and local government web resources and services.